createdAt,value
2017-12-16T00:00:57.179Z,32.53
2017-12-16T00:03:25.476Z,32.17
2017-12-16T00:05:52.959Z,35.00
2017-12-16T00:08:20.467Z,30.08
2017-12-16T00:10:49.180Z,32.45
2017-12-16T00:13:17.106Z,35.00
2017-12-16T00:15:44.659Z,33.55
2017-12-16T00:18:12.187Z,34.75
2017-12-16T00:20:39.671Z,41.15
2017-12-16T00:23:07.978Z,30.02
2017-12-16T00:25:36.267Z,28.98
2017-12-16T00:28:03.774Z,30.98
2017-12-16T00:30:31.267Z,32.85
2017-12-16T00:32:59.993Z,33.42
2017-12-16T00:35:27.515Z,33.35
2017-12-16T00:37:55.788Z,34.72
2017-12-16T00:40:24.119Z,35.25
2017-12-16T00:42:51.659Z,31.40
2017-12-16T00:45:19.634Z,31.10
2017-12-16T00:47:48.270Z,31.05
2017-12-16T00:50:15.769Z,32.53
2017-12-16T00:52:43.255Z,32.15
2017-12-16T00:55:11.267Z,31.92
2017-12-16T00:57:39.559Z,33.50
2017-12-16T01:00:07.814Z,30.55
2017-12-16T01:02:35.754Z,31.80
2017-12-16T01:05:03.258Z,30.42
2017-12-16T01:07:31.501Z,31.92
2017-12-16T01:09:59.693Z,33.78
2017-12-16T01:12:28.759Z,32.00
2017-12-16T01:14:56.246Z,31.35
2017-12-16T01:17:24.162Z,33.85
2017-12-16T01:19:51.705Z,33.63
2017-12-16T01:22:19.333Z,34.47
2017-12-16T01:24:46.878Z,36.10
2017-12-16T01:27:14.408Z,35.90
2017-12-16T01:29:42.421Z,34.75
2017-12-16T01:32:10.370Z,33.13
2017-12-16T01:34:49.710Z,35.50
2017-12-16T01:37:30.062Z,36.63
2017-12-16T01:39:58.761Z,37.25
2017-12-16T01:42:26.246Z,35.17
2017-12-16T01:44:54.837Z,38.40
2017-12-16T01:47:23.471Z,36.25
2017-12-16T01:49:50.975Z,37.30
2017-12-16T01:52:19.220Z,35.63
2017-12-16T01:54:46.732Z,33.53
2017-12-16T01:57:14.539Z,36.20
2017-12-16T01:59:42.314Z,34.83
2017-12-16T02:02:09.831Z,35.05
2017-12-16T02:04:37.323Z,34.63
2017-12-16T02:07:04.805Z,33.00
2017-12-16T02:09:33.080Z,33.47
2017-12-16T02:14:36.878Z,33.75
2017-12-16T02:17:04.634Z,33.90
2017-12-16T02:19:32.170Z,34.85
2017-12-16T02:21:59.688Z,32.65
2017-12-16T02:24:27.947Z,33.13
2017-12-16T02:26:55.436Z,32.13
2017-12-16T02:29:23.937Z,33.13
2017-12-16T02:31:52.183Z,33.00
2017-12-16T02:34:20.431Z,36.28
2017-12-16T02:36:48.179Z,34.88
2017-12-16T02:39:15.718Z,35.67
2017-12-16T02:41:43.214Z,36.38
2017-12-16T02:44:11.124Z,37.78
2017-12-16T02:46:38.611Z,37.28
2017-12-16T02:49:06.114Z,35.80
2017-12-16T02:51:33.736Z,37.05
2017-12-16T02:54:01.623Z,37.55
2017-12-16T02:56:29.583Z,35.90
2017-12-16T02:58:57.259Z,34.72
2017-12-16T03:01:24.759Z,31.25
2017-12-16T03:03:52.563Z,31.52
2017-12-16T03:06:20.716Z,32.53
2017-12-16T03:08:48.216Z,32.15
2017-12-16T03:11:16.093Z,32.70
2017-12-16T03:13:43.639Z,34.55
2017-12-16T03:16:11.695Z,36.28
2017-12-16T03:18:39.286Z,32.05
2017-12-16T03:21:06.997Z,34.15
2017-12-16T03:23:34.560Z,33.67
2017-12-16T03:26:02.048Z,35.13
2017-12-16T03:28:29.579Z,35.75
2017-12-16T03:30:57.476Z,36.78
2017-12-16T03:33:25.460Z,35.28
2017-12-16T03:35:53.887Z,33.70
2017-12-16T03:38:21.677Z,33.28
2017-12-16T03:40:50.307Z,31.30
2017-12-16T03:43:18.875Z,33.03
2017-12-16T03:45:46.993Z,28.42
2017-12-16T03:48:14.494Z,30.40
2017-12-16T03:50:41.998Z,29.33
2017-12-16T03:53:09.498Z,26.65
2017-12-16T03:55:37.374Z,27.20
2017-12-16T03:58:04.909Z,25.37
2017-12-16T04:00:32.429Z,28.00
2017-12-16T04:03:00.075Z,27.58
2017-12-16T04:05:27.944Z,27.60
2017-12-16T04:07:55.422Z,27.13
2017-12-16T04:10:23.670Z,25.95
2017-12-16T04:12:51.330Z,28.60
2017-12-16T04:15:19.395Z,27.13
2017-12-16T04:17:47.979Z,26.05
2017-12-16T04:20:15.548Z,23.73
2017-12-16T04:22:43.544Z,28.30
2017-12-16T04:25:11.134Z,30.05
2017-12-16T04:27:38.630Z,27.42
2017-12-16T04:30:06.572Z,30.60
2017-12-16T04:32:34.358Z,28.60
2017-12-16T04:35:02.017Z,28.67
2017-12-16T04:37:29.515Z,28.02
2017-12-16T04:39:57.762Z,28.08
2017-12-16T04:42:25.376Z,27.67
2017-12-16T04:44:52.899Z,26.42
2017-12-16T04:47:21.151Z,25.62
2017-12-16T04:49:48.687Z,24.50
2017-12-16T04:52:16.185Z,23.70
2017-12-16T04:54:44.026Z,23.67
2017-12-16T04:57:11.549Z,22.17
2017-12-16T04:59:40.079Z,22.42
2017-12-16T05:02:08.355Z,20.95
2017-12-16T05:04:36.223Z,21.50
2017-12-16T05:07:04.348Z,20.05
2017-12-16T05:09:33.469Z,19.70
2017-12-16T05:12:01.215Z,18.92
2017-12-16T05:14:29.132Z,17.52
2017-12-16T05:16:56.776Z,18.98
2017-12-16T05:19:24.432Z,18.60
2017-12-16T05:21:57.977Z,17.60
2017-12-16T05:24:26.403Z,13.45
2017-12-16T05:26:54.098Z,15.55
2017-12-16T05:29:21.738Z,13.90
2017-12-16T05:31:49.283Z,13.50
2017-12-16T05:34:16.771Z,12.00
2017-12-16T05:36:44.266Z,12.20
2017-12-16T05:39:11.783Z,13.57
2017-12-16T05:41:39.424Z,12.85
2017-12-16T05:44:06.930Z,11.80
2017-12-16T05:46:34.518Z,10.60
2017-12-16T05:49:02.006Z,11.68
2017-12-16T05:51:29.575Z,10.52
2017-12-16T05:53:57.127Z,10.13
2017-12-16T05:56:24.619Z,9.50
2017-12-16T05:58:52.253Z,9.98
2017-12-16T06:01:19.763Z,9.40
2017-12-16T06:03:47.303Z,8.82
2017-12-16T06:06:14.966Z,9.20
2017-12-16T06:08:42.595Z,9.52
2017-12-16T06:11:10.106Z,11.60
2017-12-16T06:13:37.732Z,13.73
2017-12-16T06:16:06.042Z,12.32
2017-12-16T06:18:34.298Z,13.75
2017-12-16T06:21:02.002Z,14.60
2017-12-16T06:23:29.518Z,14.93
2017-12-16T06:25:57.106Z,15.25
2017-12-16T06:28:25.380Z,13.75
2017-12-16T06:30:53.796Z,16.10
2017-12-16T06:33:21.387Z,15.73
2017-12-16T06:35:49.088Z,15.23
2017-12-16T06:38:17.846Z,13.95
2017-12-16T06:40:46.264Z,13.73
2017-12-16T06:43:13.799Z,12.25
2017-12-16T06:45:41.411Z,13.60
2017-12-16T06:48:08.938Z,13.00
2017-12-16T06:50:36.513Z,12.45
2017-12-16T06:53:04.155Z,11.93
2017-12-16T06:55:31.754Z,12.90
2017-12-16T06:57:59.331Z,9.63
2017-12-16T07:00:26.818Z,11.05
2017-12-16T07:02:54.321Z,10.15
2017-12-16T07:05:21.833Z,7.50
2017-12-16T07:07:49.314Z,8.20
2017-12-16T07:10:17.590Z,8.82
2017-12-16T07:12:45.876Z,8.38
2017-12-16T07:15:13.490Z,6.90
2017-12-16T07:17:41.031Z,7.97
2017-12-16T07:20:08.546Z,7.65
2017-12-16T07:22:37.157Z,7.35
2017-12-16T07:25:04.643Z,6.60
2017-12-16T07:27:32.175Z,6.75
2017-12-16T07:29:59.659Z,8.48
2017-12-16T07:32:27.135Z,7.32
2017-12-16T07:34:54.635Z,7.40
2017-12-16T07:37:22.883Z,8.25
2017-12-16T07:39:50.358Z,7.75
2017-12-16T07:42:18.796Z,6.05
2017-12-16T07:44:47.087Z,7.50
2017-12-16T07:47:14.654Z,6.10
2017-12-16T07:49:42.167Z,7.62
2017-12-16T07:52:09.647Z,7.45
2017-12-16T07:54:37.301Z,7.45
2017-12-16T07:57:04.846Z,9.13
2017-12-16T07:59:32.428Z,8.60
2017-12-16T08:01:59.974Z,9.45
2017-12-16T08:04:27.562Z,7.97
2017-12-16T08:06:55.184Z,8.65
2017-12-16T08:09:22.858Z,8.93
2017-12-16T08:11:50.379Z,9.80
2017-12-16T08:14:18.626Z,10.10
2017-12-16T08:16:46.176Z,10.38
2017-12-16T08:19:14.484Z,11.30
2017-12-16T08:21:41.986Z,10.20
2017-12-16T08:24:10.261Z,10.38
2017-12-16T08:26:37.755Z,10.55
2017-12-16T08:29:05.251Z,8.77
2017-12-16T08:31:33.618Z,10.82
2017-12-16T08:34:01.223Z,8.85
2017-12-16T08:36:28.710Z,9.05
2017-12-16T08:38:56.206Z,9.02
2017-12-16T08:41:24.472Z,10.38
2017-12-16T08:43:52.738Z,9.57
2017-12-16T08:46:20.989Z,7.25
2017-12-16T08:48:48.556Z,7.75
2017-12-16T08:51:16.044Z,5.95
2017-12-16T08:53:44.373Z,5.65
2017-12-16T08:56:11.972Z,6.05
2017-12-16T08:58:39.658Z,5.97
2017-12-16T09:01:07.206Z,6.12
2017-12-16T09:03:35.686Z,4.50
2017-12-16T09:06:03.256Z,4.55
2017-12-16T09:08:31.603Z,3.97
2017-12-16T09:10:59.183Z,3.40
2017-12-16T09:13:26.755Z,3.87
2017-12-16T09:15:54.340Z,3.83
2017-12-16T09:18:22.788Z,2.97
2017-12-16T09:20:51.123Z,2.83
2017-12-16T09:23:18.691Z,3.35
2017-12-16T09:25:46.359Z,3.40
2017-12-16T09:28:13.909Z,3.40
2017-12-16T09:30:41.539Z,2.72
2017-12-16T09:33:10.197Z,2.60
2017-12-16T09:35:37.929Z,2.80
2017-12-16T09:38:05.623Z,4.20
2017-12-16T09:40:34.073Z,2.28
2017-12-16T09:43:01.801Z,2.22
2017-12-16T09:45:29.452Z,2.58
2017-12-16T09:47:57.195Z,3.00
2017-12-16T09:50:25.606Z,2.28
2017-12-16T09:52:53.339Z,2.25
2017-12-16T09:55:21.205Z,3.10
2017-12-16T09:57:48.771Z,2.97
2017-12-16T10:00:16.332Z,3.20
2017-12-16T10:02:43.936Z,3.80
2017-12-16T10:05:11.499Z,4.82
2017-12-16T10:07:39.896Z,2.40
2017-12-16T10:10:07.490Z,2.42
2017-12-16T10:12:37.058Z,2.45
2017-12-16T10:15:04.539Z,2.70
2017-12-16T10:17:32.159Z,3.03
2017-12-16T10:19:59.855Z,3.10
2017-12-16T10:22:27.395Z,1.92
2017-12-16T10:24:54.908Z,2.45
2017-12-16T10:27:23.235Z,3.58
2017-12-16T10:29:50.710Z,2.65
2017-12-16T10:32:18.232Z,2.83
2017-12-16T10:34:45.710Z,3.50
2017-12-16T10:37:13.196Z,3.45
2017-12-16T10:39:41.002Z,3.65
2017-12-16T10:42:08.629Z,3.17
2017-12-16T10:44:36.159Z,3.58
2017-12-16T10:47:03.638Z,4.00
2017-12-16T10:49:31.114Z,4.07
2017-12-16T10:51:59.394Z,3.50
2017-12-16T10:54:27.638Z,3.28
2017-12-16T10:56:55.142Z,3.22
2017-12-16T10:59:22.653Z,3.15
2017-12-16T11:01:50.126Z,3.05
2017-12-16T11:04:17.610Z,2.70
2017-12-16T11:06:45.118Z,3.30
2017-12-16T11:09:12.598Z,3.00
2017-12-16T11:11:40.382Z,5.10
2017-12-16T11:14:08.631Z,4.47
2017-12-16T11:16:36.154Z,3.30
2017-12-16T11:19:03.654Z,3.65
2017-12-16T11:21:32.911Z,4.03
2017-12-16T11:24:00.431Z,3.72
2017-12-16T11:26:28.681Z,3.55
2017-12-16T11:28:56.278Z,3.78
2017-12-16T11:31:24.523Z,3.67
2017-12-16T11:33:52.036Z,3.97
2017-12-16T11:36:19.551Z,4.20
2017-12-16T11:38:47.840Z,4.55
2017-12-16T11:41:15.319Z,4.87
2017-12-16T11:43:42.803Z,4.70
2017-12-16T11:46:10.323Z,4.82
2017-12-16T11:48:38.583Z,2.83
2017-12-16T11:51:06.054Z,4.50
2017-12-16T11:53:34.316Z,2.87
2017-12-16T11:56:01.790Z,3.60
2017-12-16T11:58:29.269Z,4.07
2017-12-16T12:00:57.283Z,3.95
2017-12-16T12:03:25.997Z,3.60
2017-12-16T12:05:54.238Z,3.53
2017-12-16T12:08:21.780Z,3.90
2017-12-16T12:10:49.283Z,3.85
2017-12-16T12:13:17.605Z,3.25
2017-12-16T12:15:45.231Z,3.42
2017-12-16T12:18:13.495Z,3.20
2017-12-16T12:20:41.027Z,4.20
2017-12-16T12:23:08.575Z,3.87
2017-12-16T12:25:36.794Z,3.28
2017-12-16T12:28:04.274Z,3.10
2017-12-16T12:30:31.754Z,3.03
2017-12-16T12:32:59.294Z,3.33
2017-12-16T12:35:26.778Z,3.90
2017-12-16T12:37:54.255Z,2.80
2017-12-16T12:40:21.758Z,3.47
2017-12-16T12:42:49.998Z,3.20
2017-12-16T12:45:17.478Z,2.90
2017-12-16T12:47:44.986Z,3.10
2017-12-16T12:50:12.462Z,2.75
2017-12-16T12:52:39.938Z,2.72
2017-12-16T12:55:07.437Z,2.80
2017-12-16T12:57:34.914Z,2.45
2017-12-16T13:00:02.394Z,2.70
2017-12-16T13:02:29.915Z,2.72
2017-12-16T13:04:57.414Z,2.90
2017-12-16T13:07:24.891Z,2.83
2017-12-16T13:09:52.411Z,2.95
2017-12-16T13:12:19.890Z,2.42
2017-12-16T13:14:47.364Z,2.53
2017-12-16T13:17:14.887Z,2.50
2017-12-16T13:19:42.362Z,2.47
2017-12-16T13:22:09.941Z,3.55
2017-12-16T13:24:37.916Z,3.20
2017-12-16T13:27:05.454Z,3.05
2017-12-16T13:29:32.934Z,2.60
2017-12-16T13:32:00.452Z,2.78
2017-12-16T13:34:28.074Z,2.30
2017-12-16T13:36:56.339Z,2.72
2017-12-16T13:39:23.844Z,2.60
2017-12-16T13:41:51.346Z,2.45
2017-12-16T13:44:18.838Z,2.62
2017-12-16T13:46:46.353Z,2.83
2017-12-16T13:49:13.846Z,3.20
2017-12-16T13:51:42.123Z,3.40
2017-12-16T13:54:11.087Z,3.20
2017-12-16T13:56:38.573Z,4.55
2017-12-16T13:59:06.096Z,3.42
2017-12-16T14:01:34.483Z,3.30
2017-12-16T14:04:02.311Z,3.62
2017-12-16T14:06:31.418Z,3.30
2017-12-16T14:08:58.971Z,3.65
2017-12-16T14:11:26.458Z,2.60
2017-12-16T14:13:54.556Z,2.30
2017-12-16T14:16:22.904Z,2.03
2017-12-16T14:18:50.769Z,1.85
2017-12-16T14:21:19.735Z,1.80
2017-12-16T14:23:47.226Z,1.20
2017-12-16T14:26:14.734Z,1.70
2017-12-16T14:28:42.210Z,1.35
2017-12-16T14:31:09.701Z,1.30
2017-12-16T14:33:37.413Z,1.45
2017-12-16T14:36:04.932Z,1.37
2017-12-16T14:38:32.418Z,1.15
2017-12-16T14:41:00.686Z,1.40
2017-12-16T14:43:28.990Z,1.40
2017-12-16T14:45:56.467Z,1.40
2017-12-16T14:48:23.983Z,1.50
2017-12-16T14:50:52.255Z,1.42
2017-12-16T14:53:20.516Z,1.50
2017-12-16T14:55:48.003Z,2.03
2017-12-16T14:58:17.643Z,2.00
2017-12-16T15:00:45.154Z,2.35
2017-12-16T15:03:13.921Z,2.50
2017-12-16T15:05:41.399Z,2.62
2017-12-16T15:08:10.593Z,2.33
2017-12-16T15:10:38.101Z,2.03
2017-12-16T15:13:05.595Z,2.03
2017-12-16T15:15:33.767Z,2.95
2017-12-16T15:18:01.267Z,2.95
2017-12-16T15:20:29.532Z,4.20
2017-12-16T15:22:58.146Z,3.80
2017-12-16T15:25:25.675Z,3.83
2017-12-16T15:27:53.925Z,4.43
2017-12-16T15:30:21.471Z,5.28
2017-12-16T15:32:48.987Z,5.00
2017-12-16T15:35:16.471Z,6.22
2017-12-16T15:37:43.982Z,5.87
2017-12-16T15:40:12.318Z,6.30
2017-12-16T15:42:39.794Z,5.25
2017-12-16T15:45:07.266Z,5.55
2017-12-16T15:47:34.772Z,5.82
2017-12-16T15:50:02.250Z,6.75
2017-12-16T15:52:29.736Z,7.32
2017-12-16T15:54:57.299Z,5.35
2017-12-16T15:57:24.801Z,6.50
2017-12-16T15:59:52.289Z,6.28
2017-12-16T16:02:19.805Z,5.85
2017-12-16T16:04:47.302Z,5.47
2017-12-16T16:07:14.838Z,6.20
2017-12-16T16:09:42.497Z,5.20
2017-12-16T16:12:09.974Z,4.95
2017-12-16T16:14:37.450Z,4.78
2017-12-16T16:17:04.950Z,4.00
2017-12-16T16:19:33.202Z,3.85
2017-12-16T16:22:01.479Z,4.18
2017-12-16T16:24:29.827Z,4.30
2017-12-16T16:26:57.314Z,5.57
2017-12-16T16:29:24.794Z,4.78
2017-12-16T16:31:53.135Z,4.72
2017-12-16T16:34:20.701Z,4.57
2017-12-16T16:36:48.186Z,4.93
2017-12-16T16:39:16.454Z,5.53
2017-12-16T16:41:44.732Z,6.10
2017-12-16T16:44:13.055Z,5.57
2017-12-16T16:46:41.678Z,6.57
2017-12-16T16:49:11.599Z,7.22
2017-12-16T16:51:39.878Z,6.15
2017-12-16T16:54:07.459Z,6.55
2017-12-16T16:56:35.725Z,6.95
2017-12-16T16:59:03.228Z,6.55
2017-12-16T17:01:30.772Z,5.90
2017-12-16T17:03:58.250Z,5.43
2017-12-16T17:06:25.751Z,6.87
2017-12-16T17:08:53.286Z,7.43
2017-12-16T17:11:20.765Z,8.98
2017-12-16T17:13:49.022Z,8.38
2017-12-16T17:16:16.536Z,5.82
2017-12-16T17:18:45.370Z,6.03
2017-12-16T17:21:12.859Z,5.40
2017-12-16T17:23:41.854Z,6.00
2017-12-16T17:26:09.341Z,6.80
2017-12-16T17:28:36.830Z,6.80
2017-12-16T17:31:04.399Z,7.75
2017-12-16T17:33:32.775Z,6.60
2017-12-16T17:36:00.288Z,6.85
2017-12-16T17:38:27.801Z,9.23
2017-12-16T17:40:55.279Z,6.95
2017-12-16T17:43:22.771Z,7.20
2017-12-16T17:45:50.282Z,7.07
2017-12-16T17:48:17.792Z,7.37
2017-12-16T17:50:45.302Z,6.80
2017-12-16T17:53:13.610Z,6.82
2017-12-16T17:55:41.096Z,9.57
2017-12-16T17:58:11.691Z,7.82
2017-12-16T18:00:39.214Z,5.82
2017-12-16T18:03:12.702Z,7.47
2017-12-16T18:05:41.749Z,7.15
2017-12-16T18:08:09.341Z,7.90
2017-12-16T18:10:36.831Z,7.37
2017-12-16T18:13:04.325Z,6.97
2017-12-16T18:15:31.848Z,7.12
2017-12-16T18:18:00.104Z,8.68
2017-12-16T18:20:27.610Z,7.47
2017-12-16T18:22:55.107Z,8.05
2017-12-16T18:25:22.603Z,6.65
2017-12-16T18:27:50.873Z,7.07
2017-12-16T18:30:18.375Z,6.75
2017-12-16T18:32:45.886Z,6.53
2017-12-16T18:35:17.236Z,7.75
2017-12-16T18:37:45.732Z,6.37
2017-12-16T18:40:13.744Z,7.45
2017-12-16T18:42:42.318Z,6.68
2017-12-16T18:45:09.883Z,6.45
2017-12-16T18:47:42.180Z,6.00
2017-12-16T18:50:11.624Z,6.75
2017-12-16T18:52:41.316Z,5.50
2017-12-16T18:55:08.797Z,5.80
2017-12-16T18:57:38.466Z,5.90
2017-12-16T19:00:07.190Z,5.07
2017-12-16T19:02:40.101Z,6.30
2017-12-16T19:05:08.229Z,5.78
2017-12-16T19:07:35.722Z,6.20
2017-12-16T19:10:03.212Z,6.15
2017-12-16T19:12:30.910Z,5.90
2017-12-16T19:15:00.723Z,6.43
2017-12-16T19:17:28.254Z,6.87
2017-12-16T19:19:55.750Z,6.53
2017-12-16T19:22:23.284Z,5.90
2017-12-16T19:24:50.758Z,7.37
2017-12-16T19:27:22.254Z,5.95
2017-12-16T19:29:51.092Z,6.62
2017-12-16T19:32:20.046Z,5.95
2017-12-16T19:34:47.595Z,7.47
2017-12-16T19:37:16.905Z,7.72
2017-12-16T19:39:44.836Z,6.47
2017-12-16T19:42:12.336Z,6.87
2017-12-16T19:44:39.919Z,6.57
2017-12-16T19:47:08.782Z,6.25
2017-12-16T19:49:37.962Z,7.22
2017-12-16T19:52:05.446Z,7.37
2017-12-16T19:54:36.268Z,6.25
2017-12-16T19:57:05.295Z,5.80
2017-12-16T19:59:32.790Z,6.72
2017-12-16T20:02:00.279Z,6.00
2017-12-16T20:04:27.863Z,5.90
2017-12-16T20:06:55.358Z,6.15
2017-12-16T20:09:23.605Z,6.78
2017-12-16T20:11:51.546Z,6.90
2017-12-16T20:14:19.228Z,6.00
2017-12-16T20:16:48.992Z,6.78
2017-12-16T20:19:17.095Z,7.53
2017-12-16T20:21:44.636Z,7.00
2017-12-16T20:24:12.151Z,6.43
2017-12-16T20:26:41.151Z,6.70
2017-12-16T20:29:11.614Z,8.27
2017-12-16T20:31:39.214Z,6.95
2017-12-16T20:34:07.570Z,7.32
2017-12-16T20:36:35.070Z,8.50
2017-12-16T20:39:03.754Z,7.40
2017-12-16T20:41:34.676Z,7.32
2017-12-16T20:44:02.187Z,8.25
2017-12-16T20:46:30.224Z,8.30
2017-12-16T20:48:59.335Z,8.35
2017-12-16T20:51:26.876Z,9.95
2017-12-16T20:53:54.363Z,8.00
2017-12-16T20:56:21.911Z,8.65
2017-12-16T20:58:50.794Z,9.77
2017-12-16T21:01:19.044Z,10.25
2017-12-16T21:03:46.530Z,9.77
2017-12-16T21:06:14.820Z,9.43
2017-12-16T21:08:42.308Z,8.73
2017-12-16T21:11:09.794Z,9.30
2017-12-16T21:13:37.301Z,8.45
2017-12-16T21:16:04.787Z,8.77
2017-12-16T21:18:32.278Z,9.63
2017-12-16T21:20:59.781Z,7.53
2017-12-16T21:23:27.277Z,9.65
2017-12-16T21:25:54.761Z,8.95
2017-12-16T21:28:22.269Z,8.90
2017-12-16T21:30:49.811Z,10.20
2017-12-16T21:33:17.333Z,9.65
2017-12-16T21:35:45.595Z,10.40
2017-12-16T21:38:13.086Z,10.07
2017-12-16T21:40:40.598Z,9.10
2017-12-16T21:43:08.084Z,9.15
2017-12-16T21:45:36.342Z,10.15
2017-12-16T21:48:03.861Z,9.93
2017-12-16T21:50:31.739Z,10.23
2017-12-16T21:52:59.360Z,11.52
2017-12-16T21:55:28.344Z,11.05
2017-12-16T21:57:56.589Z,9.27
2017-12-16T22:00:24.190Z,10.77
2017-12-16T22:02:52.430Z,9.75
2017-12-16T22:05:19.942Z,11.10
2017-12-16T22:07:47.509Z,10.07
2017-12-16T22:10:15.139Z,9.70
2017-12-16T22:12:43.483Z,9.20
2017-12-16T22:15:11.580Z,9.15
2017-12-16T22:17:39.834Z,10.18
2017-12-16T22:20:07.324Z,9.80
2017-12-16T22:22:34.875Z,9.50
2017-12-16T22:25:03.000Z,10.13
2017-12-16T22:27:32.041Z,10.27
2017-12-16T22:30:00.316Z,12.85
2017-12-16T22:32:28.591Z,10.57
2017-12-16T22:34:56.852Z,10.13
2017-12-16T22:37:24.449Z,10.52
2017-12-16T22:39:51.947Z,9.27
2017-12-16T22:42:19.435Z,9.95
2017-12-16T22:44:46.947Z,11.02
2017-12-16T22:47:14.439Z,11.40
2017-12-16T22:49:41.926Z,10.27
2017-12-16T22:52:11.232Z,13.10
2017-12-16T22:54:38.738Z,11.77
2017-12-16T22:57:06.753Z,11.75
2017-12-16T22:59:35.108Z,12.18
2017-12-16T23:02:02.594Z,10.30
2017-12-16T23:04:30.875Z,10.75
2017-12-16T23:06:59.146Z,13.40
2017-12-16T23:09:27.411Z,12.90
2017-12-16T23:11:55.690Z,12.10
2017-12-16T23:14:23.978Z,13.02
2017-12-16T23:16:52.226Z,10.85
2017-12-16T23:19:19.907Z,13.30
2017-12-16T23:21:47.477Z,11.57
2017-12-16T23:24:15.723Z,13.00
2017-12-16T23:26:43.217Z,11.57
2017-12-16T23:29:10.731Z,13.52
2017-12-16T23:31:38.264Z,12.27
2017-12-16T23:34:05.751Z,11.45
2017-12-16T23:36:33.306Z,12.40
2017-12-16T23:39:01.824Z,14.50
2017-12-16T23:41:30.347Z,13.60
2017-12-16T23:43:57.875Z,13.55
2017-12-16T23:46:25.384Z,13.30
2017-12-16T23:48:52.866Z,13.85
2017-12-16T23:51:22.222Z,14.57
2017-12-16T23:53:50.036Z,15.38
2017-12-16T23:56:18.296Z,14.25
2017-12-16T23:58:45.818Z,15.73
